Time;durP1;ratioP1;P1;durP2;ratioP2;P2;SDS_P1;SDS_P2;PMS_P1;PMS_P2;Temp;Humidity;BMP_temperature;BMP_pressure;BME280_temperature;BME280_humidity;BME280_pressure;Samples;Min_cycle;Max_cycle;Signal;HPM_P1;HPM_P2
2022/06/26 00:01:41;;;;;;;12.77;11.25;;;19.40;99.90;;;;;;5014324;28;20049;-62
2022/06/26 00:04:07;;;;;;;13.27;10.85;;;19.30;99.90;;;;;;5021626;28;20044;-62
2022/06/26 00:06:33;;;;;;;14.20;11.23;;;19.30;99.90;;;;;;5026199;28;20124;-62
2022/06/26 00:09:02;;;;;;;14.02;10.88;;;19.30;99.90;;;;;;4998733;28;20122;-62
2022/06/26 00:11:27;;;;;;;15.95;10.60;;;19.30;99.90;;;;;;5021972;28;20037;-62
2022/06/26 00:13:53;;;;;;;13.40;10.75;;;19.30;99.90;;;;;;5020387;28;20076;-62
2022/06/26 00:16:21;;;;;;;11.73;10.52;;;19.30;99.90;;;;;;5021241;28;20041;-62
2022/06/26 00:18:48;;;;;;;14.13;10.18;;;19.20;99.90;;;;;;5023352;28;20491;-62
2022/06/26 00:21:14;;;;;;;14.43;11.02;;;19.20;99.90;;;;;;5020423;28;20087;-62
2022/06/26 00:23:39;;;;;;;10.85;9.70;;;19.20;99.90;;;;;;5023571;28;20049;-62
2022/06/26 00:26:05;;;;;;;11.55;10.02;;;19.20;99.90;;;;;;5011655;28;20053;-62
2022/06/26 00:28:31;;;;;;;10.93;9.60;;;19.20;99.90;;;;;;5016246;28;20084;-62
2022/06/26 00:30:57;;;;;;;12.65;9.93;;;19.20;99.90;;;;;;5019144;28;20504;-62
2022/06/26 00:33:23;;;;;;;13.13;9.95;;;19.10;99.90;;;;;;5017554;28;20096;-62
2022/06/26 00:35:49;;;;;;;12.55;9.63;;;19.10;99.90;;;;;;5022780;28;20049;-62
2022/06/26 00:38:15;;;;;;;15.80;10.68;;;19.10;99.90;;;;;;5021427;28;20033;-63
2022/06/26 00:40:42;;;;;;;13.25;10.43;;;19.10;99.90;;;;;;5007171;28;20045;-62
2022/06/26 00:43:09;;;;;;;13.00;10.77;;;19.10;99.90;;;;;;5006459;28;20546;-62
2022/06/26 00:45:34;;;;;;;12.95;11.15;;;19.10;99.90;;;;;;5019089;28;20045;-62
2022/06/26 00:48:01;;;;;;;13.27;11.23;;;19.10;99.90;;;;;;5018297;28;20128;-62
2022/06/26 00:50:27;;;;;;;12.55;10.88;;;19.10;99.90;;;;;;5013352;28;20411;-62
2022/06/26 00:52:54;;;;;;;13.75;11.07;;;19.10;99.90;;;;;;5019509;28;20045;-62
2022/06/26 00:55:20;;;;;;;13.05;11.57;;;19.10;99.90;;;;;;5031254;28;20041;-62
2022/06/26 00:57:47;;;;;;;14.80;12.43;;;19.10;99.90;;;;;;5023222;28;20431;-62
2022/06/26 01:00:14;;;;;;;14.32;12.88;;;19.10;99.90;;;;;;5019800;28;20555;-62
2022/06/26 01:02:41;;;;;;;15.60;12.18;;;19.10;99.90;;;;;;5022094;28;20049;-62
2022/06/26 01:05:08;;;;;;;17.48;12.15;;;19.10;99.90;;;;;;5019686;28;20057;-62
2022/06/26 01:07:34;;;;;;;15.25;12.80;;;19.10;99.90;;;;;;5001712;28;20059;-62
2022/06/26 01:10:01;;;;;;;14.55;13.05;;;19.10;99.90;;;;;;5019873;28;20053;-62
2022/06/26 01:12:28;;;;;;;18.42;14.98;;;19.10;99.90;;;;;;5006117;28;20081;-62
2022/06/26 01:14:54;;;;;;;21.98;17.08;;;19.10;99.90;;;;;;5022192;28;20045;-62
2022/06/26 01:17:20;;;;;;;20.25;16.08;;;19.00;99.90;;;;;;5025842;28;20138;-62
2022/06/26 01:19:46;;;;;;;22.48;16.17;;;18.90;99.90;;;;;;5019385;28;20037;-62
2022/06/26 01:22:12;;;;;;;22.30;17.35;;;18.80;99.90;;;;;;5018978;28;20124;-62
2022/06/26 01:24:38;;;;;;;21.50;16.63;;;18.80;99.90;;;;;;5018159;28;20129;-62
2022/06/26 01:27:04;;;;;;;19.75;15.43;;;18.70;99.90;;;;;;5019636;28;20045;-62
2022/06/26 01:29:30;;;;;;;20.60;16.23;;;18.80;99.90;;;;;;5020781;28;20470;-63
2022/06/26 01:31:56;;;;;;;25.17;16.05;;;18.70;99.90;;;;;;5023423;28;20106;-62
2022/06/26 01:34:22;;;;;;;21.27;15.68;;;18.80;99.90;;;;;;5015941;28;20056;-62
2022/06/26 01:36:48;;;;;;;22.77;15.77;;;18.70;99.90;;;;;;5010272;28;20714;-61
2022/06/26 01:39:17;;;;;;;26.23;14.48;;;18.70;99.90;;;;;;4984039;28;20407;-62
2022/06/26 01:41:43;;;;;;;20.80;15.32;;;18.70;99.90;;;;;;5022148;28;20208;-62
2022/06/26 01:44:09;;;;;;;25.38;15.57;;;18.70;99.90;;;;;;5019935;28;20391;-62
2022/06/26 01:46:35;;;;;;;18.58;14.55;;;18.70;99.90;;;;;;5018288;28;20042;-62
2022/06/26 01:49:02;;;;;;;23.38;15.13;;;18.70;99.90;;;;;;4977242;28;20053;-62
2022/06/26 01:51:27;;;;;;;22.77;14.60;;;18.70;99.90;;;;;;5022074;28;20053;-63
2022/06/26 01:53:53;;;;;;;17.88;13.82;;;18.70;99.90;;;;;;4979249;28;20049;-62
2022/06/26 01:56:19;;;;;;;18.90;13.35;;;18.60;99.90;;;;;;5013415;28;20149;-62
2022/06/26 01:58:45;;;;;;;17.60;13.15;;;18.60;99.90;;;;;;5019250;28;20044;-62
2022/06/26 02:01:11;;;;;;;15.20;12.82;;;18.60;99.90;;;;;;5024426;28;20061;-62
2022/06/26 02:03:37;;;;;;;17.63;12.00;;;18.60;99.90;;;;;;5015746;28;20135;-62
2022/06/26 02:06:03;;;;;;;17.25;12.32;;;18.50;99.90;;;;;;5018775;28;20045;-62
2022/06/26 02:08:28;;;;;;;14.50;11.52;;;18.50;99.90;;;;;;5021656;28;20049;-62
2022/06/26 02:13:40;;;;;;;14.38;10.40;;;18.50;99.90;;;;;;5006426;28;20049;-62
2022/06/26 02:16:09;;;;;;;17.17;11.27;;;18.50;99.90;;;;;;5021338;28;20041;-63
2022/06/26 02:18:36;;;;;;;11.52;9.95;;;18.50;99.90;;;;;;5020052;28;20048;-62
2022/06/26 02:21:05;;;;;;;13.95;9.65;;;18.40;99.90;;;;;;5020180;28;20053;-62
2022/06/26 02:23:31;;;;;;;17.95;10.75;;;18.50;99.90;;;;;;5005553;28;20089;-62
2022/06/26 02:25:57;;;;;;;17.25;10.30;;;18.40;99.90;;;;;;5016861;28;22071;-62
2022/06/26 02:28:22;;;;;;;14.75;9.90;;;18.40;99.90;;;;;;5024092;28;20046;-62
2022/06/26 02:30:49;;;;;;;17.15;10.35;;;18.40;99.90;;;;;;5013370;28;20072;-62
2022/06/26 02:33:15;;;;;;;12.55;9.57;;;18.40;99.90;;;;;;5020494;28;20060;-62
2022/06/26 02:35:41;;;;;;;14.98;10.95;;;18.40;99.90;;;;;;5021419;28;20044;-62
2022/06/26 02:38:07;;;;;;;16.08;11.00;;;18.30;99.90;;;;;;5016342;28;20480;-61
2022/06/26 02:40:33;;;;;;;14.52;10.55;;;18.40;99.90;;;;;;5008771;28;20085;-62
2022/06/26 02:42:59;;;;;;;18.58;10.40;;;18.30;99.90;;;;;;5020987;28;20159;-62
2022/06/26 02:45:25;;;;;;;16.38;11.32;;;18.30;99.90;;;;;;5017292;28;20045;-62
2022/06/26 02:47:51;;;;;;;16.13;10.27;;;18.30;99.90;;;;;;5022256;28;20092;-62
2022/06/26 02:50:16;;;;;;;18.13;10.13;;;18.30;99.90;;;;;;5017259;28;20136;-62
2022/06/26 02:52:43;;;;;;;14.82;10.45;;;18.20;99.90;;;;;;5017370;28;20042;-62
2022/06/26 02:55:09;;;;;;;13.52;9.13;;;18.20;99.90;;;;;;5025075;28;20049;-62
2022/06/26 02:57:35;;;;;;;15.07;10.48;;;18.20;99.90;;;;;;5018872;28;20491;-62
2022/06/26 03:00:02;;;;;;;11.82;8.45;;;18.20;99.90;;;;;;4993663;28;20048;-62
2022/06/26 03:02:28;;;;;;;15.07;8.68;;;18.10;99.90;;;;;;5017276;28;20045;-61
2022/06/26 03:04:54;;;;;;;11.48;7.50;;;18.10;99.90;;;;;;5023932;28;20064;-62
2022/06/26 03:07:21;;;;;;;11.20;8.35;;;18.10;99.90;;;;;;4994945;28;20499;-62
2022/06/26 03:09:47;;;;;;;11.63;7.80;;;18.10;99.90;;;;;;5037160;28;20496;-62
2022/06/26 03:12:14;;;;;;;11.68;7.70;;;18.10;99.90;;;;;;5022529;28;20132;-62
2022/06/26 03:14:39;;;;;;;8.88;6.60;;;18.10;99.90;;;;;;5008308;28;20045;-62
2022/06/26 03:17:06;;;;;;;11.55;6.00;;;18.10;99.90;;;;;;5020665;28;20052;-62
2022/06/26 03:19:32;;;;;;;9.05;5.63;;;18.00;99.90;;;;;;5005265;28;20136;-62
2022/06/26 03:21:58;;;;;;;7.07;5.70;;;18.00;99.90;;;;;;5026662;28;20077;-62
2022/06/26 03:24:24;;;;;;;7.18;5.20;;;18.00;99.90;;;;;;5016415;28;20057;-62
2022/06/26 03:26:50;;;;;;;11.50;5.50;;;18.00;99.90;;;;;;5029237;28;20049;-62
2022/06/26 03:29:16;;;;;;;7.78;4.90;;;18.00;99.90;;;;;;5019183;28;20533;-62
2022/06/26 03:31:42;;;;;;;9.02;5.10;;;18.00;99.90;;;;;;5007009;28;20922;-62
2022/06/26 03:34:08;;;;;;;13.85;5.00;;;18.00;99.90;;;;;;4986839;28;20062;-62
2022/06/26 03:36:34;;;;;;;9.43;4.60;;;17.90;99.90;;;;;;5023160;28;20597;-62
2022/06/26 03:39:00;;;;;;;6.70;4.55;;;17.90;99.90;;;;;;5022106;28;20104;-62
2022/06/26 03:41:26;;;;;;;7.30;4.82;;;17.90;99.90;;;;;;5023163;28;20049;-62
2022/06/26 03:43:53;;;;;;;8.25;4.20;;;17.90;99.90;;;;;;5014570;28;20448;-62
2022/06/26 03:46:19;;;;;;;8.70;4.72;;;17.90;99.90;;;;;;5013204;28;20510;-62
2022/06/26 03:48:45;;;;;;;7.55;4.88;;;17.90;99.90;;;;;;5018544;28;20053;-62
2022/06/26 03:51:11;;;;;;;8.75;4.82;;;17.90;99.90;;;;;;5040709;28;20049;-62
2022/06/26 03:53:37;;;;;;;6.70;4.60;;;17.80;99.90;;;;;;5026913;28;20824;-62
2022/06/26 03:56:03;;;;;;;6.78;4.72;;;17.80;99.90;;;;;;5024384;28;20049;-62
2022/06/26 03:58:30;;;;;;;5.35;4.68;;;17.80;99.90;;;;;;5024399;28;20271;-62
2022/06/26 04:00:56;;;;;;;6.20;4.72;;;17.80;99.90;;;;;;5012052;28;20048;-62
2022/06/26 04:03:22;;;;;;;8.48;4.75;;;17.80;99.90;;;;;;5027508;28;20045;-62
2022/06/26 04:05:48;;;;;;;6.40;4.47;;;17.80;99.90;;;;;;5023272;28;20045;-62
2022/06/26 04:08:14;;;;;;;8.07;3.97;;;17.80;99.90;;;;;;5014737;28;20064;-63
2022/06/26 04:10:41;;;;;;;6.20;3.47;;;17.80;99.90;;;;;;5024354;28;20045;-62
2022/06/26 04:13:09;;;;;;;4.15;3.63;;;17.70;99.90;;;;;;5001211;28;20110;-62
2022/06/26 04:15:36;;;;;;;3.72;3.35;;;17.80;99.90;;;;;;5010834;28;20509;-62
2022/06/26 04:18:03;;;;;;;5.38;3.20;;;17.70;99.90;;;;;;5024062;28;20763;-62
2022/06/26 04:20:30;;;;;;;5.05;3.80;;;17.70;99.90;;;;;;5026139;28;20044;-62
2022/06/26 04:22:56;;;;;;;4.47;3.58;;;17.70;99.90;;;;;;5016149;28;20073;-62
2022/06/26 04:25:23;;;;;;;5.55;3.80;;;17.70;99.90;;;;;;5022011;28;20479;-61
2022/06/26 04:27:49;;;;;;;6.88;3.78;;;17.70;99.90;;;;;;4995463;28;20511;-62
2022/06/26 04:30:15;;;;;;;6.45;3.83;;;17.80;99.90;;;;;;5020670;28;20520;-62
2022/06/26 04:32:41;;;;;;;8.65;4.05;;;17.70;99.90;;;;;;5003493;28;20095;-62
2022/06/26 04:35:08;;;;;;;5.00;3.70;;;17.80;99.90;;;;;;4997580;28;20041;-62
2022/06/26 04:37:34;;;;;;;7.35;3.70;;;17.80;99.90;;;;;;5021406;28;20041;-62
2022/06/26 04:40:00;;;;;;;5.60;3.80;;;17.80;99.90;;;;;;5021034;28;20049;-62
2022/06/26 04:42:26;;;;;;;5.20;3.67;;;17.80;99.90;;;;;;5023874;28;20043;-62
2022/06/26 04:44:51;;;;;;;5.95;3.72;;;17.80;99.90;;;;;;5016593;28;20095;-62
2022/06/26 04:47:17;;;;;;;6.50;3.88;;;17.80;99.90;;;;;;5011163;28;20069;-62
2022/06/26 04:49:43;;;;;;;6.95;4.13;;;17.90;99.90;;;;;;5015197;28;20506;-62
2022/06/26 04:52:09;;;;;;;6.82;3.97;;;17.90;99.90;;;;;;5018570;28;20060;-62
2022/06/26 04:54:35;;;;;;;5.65;3.92;;;17.90;99.90;;;;;;5021101;28;20076;-62
2022/06/26 04:57:00;;;;;;;7.30;3.45;;;17.90;99.90;;;;;;5021224;28;20049;-62
2022/06/26 04:59:26;;;;;;;6.25;4.10;;;17.90;99.90;;;;;;5020118;28;20034;-62
2022/06/26 05:01:52;;;;;;;8.15;4.40;;;18.00;99.90;;;;;;5008454;28;20056;-62
2022/06/26 05:04:18;;;;;;;5.78;3.88;;;18.00;99.90;;;;;;5003522;28;20117;-62
2022/06/26 05:06:43;;;;;;;6.55;4.25;;;18.00;99.90;;;;;;4958040;28;20049;-61
2022/06/26 05:09:09;;;;;;;5.40;4.07;;;18.00;99.90;;;;;;5000448;28;20060;-62
2022/06/26 05:11:35;;;;;;;7.93;4.28;;;18.10;99.90;;;;;;5011796;28;20049;-62
2022/06/26 05:14:01;;;;;;;5.40;4.00;;;18.10;99.90;;;;;;5011972;28;20049;-62
2022/06/26 05:16:27;;;;;;;5.07;3.88;;;18.10;99.90;;;;;;5020170;28;20484;-62
2022/06/26 05:18:52;;;;;;;5.68;3.92;;;18.10;99.90;;;;;;5020161;28;20152;-62
2022/06/26 05:21:18;;;;;;;5.55;4.38;;;18.20;99.90;;;;;;5022375;28;20059;-62
2022/06/26 05:23:44;;;;;;;8.85;4.18;;;18.20;99.90;;;;;;5022827;28;20045;-62
2022/06/26 05:26:10;;;;;;;6.72;4.57;;;18.20;99.90;;;;;;5020083;28;20112;-62
2022/06/26 05:28:36;;;;;;;8.40;4.50;;;18.30;99.90;;;;;;5022464;28;20886;-62
2022/06/26 05:31:01;;;;;;;10.65;5.22;;;18.30;99.90;;;;;;5020595;28;20061;-62
2022/06/26 05:33:27;;;;;;;7.30;5.75;;;18.30;99.90;;;;;;5006481;28;20046;-62
2022/06/26 05:35:53;;;;;;;9.00;5.65;;;18.40;99.90;;;;;;5017289;28;20217;-62
2022/06/26 05:38:19;;;;;;;9.27;5.32;;;18.40;99.90;;;;;;4992917;28;20124;-62
2022/06/26 05:40:44;;;;;;;7.10;5.30;;;18.40;99.90;;;;;;5012362;28;20053;-62
2022/06/26 05:43:10;;;;;;;7.85;5.43;;;18.40;99.90;;;;;;5017133;28;20578;-62
2022/06/26 05:45:36;;;;;;;8.57;5.50;;;18.40;99.90;;;;;;5000447;28;20508;-62
2022/06/26 05:48:02;;;;;;;8.40;6.00;;;18.40;99.90;;;;;;5013413;28;20488;-62
2022/06/26 05:50:28;;;;;;;8.48;6.32;;;18.40;99.90;;;;;;5006319;28;20049;-62
2022/06/26 05:52:54;;;;;;;9.82;6.30;;;18.40;99.90;;;;;;5011288;28;20049;-61
2022/06/26 05:55:20;;;;;;;8.82;6.65;;;18.40;99.90;;;;;;5022369;28;20053;-61
2022/06/26 05:57:46;;;;;;;10.15;6.90;;;18.50;99.90;;;;;;5014395;28;20075;-62
2022/06/26 06:00:12;;;;;;;10.07;6.75;;;18.40;99.90;;;;;;4995972;28;20049;-61
2022/06/26 06:02:38;;;;;;;11.65;6.72;;;18.50;99.90;;;;;;5008774;28;20466;-62
2022/06/26 06:05:04;;;;;;;8.02;7.15;;;18.50;99.90;;;;;;5013723;28;20053;-62
2022/06/26 06:07:30;;;;;;;9.95;8.10;;;18.50;99.90;;;;;;4992957;28;20052;-62
2022/06/26 06:09:56;;;;;;;9.60;8.15;;;18.40;99.90;;;;;;5017433;28;20057;-62
2022/06/26 06:12:22;;;;;;;12.05;7.95;;;18.50;99.90;;;;;;5010474;28;20048;-62
2022/06/26 06:14:47;;;;;;;11.18;8.32;;;18.40;99.90;;;;;;5017347;28;20045;-62
2022/06/26 06:19:58;;;;;;;11.70;9.10;;;18.50;99.90;;;;;;5013748;28;20174;-62
2022/06/26 06:22:24;;;;;;;10.68;9.57;;;18.50;99.90;;;;;;5021608;28;20049;-62
2022/06/26 06:24:49;;;;;;;13.40;10.38;;;18.50;99.90;;;;;;5003100;28;20056;-62
2022/06/26 06:27:15;;;;;;;13.80;10.43;;;18.60;99.90;;;;;;5006511;28;20049;-62
2022/06/26 06:29:41;;;;;;;11.90;10.55;;;18.60;99.90;;;;;;4999962;28;20096;-62
2022/06/26 06:32:07;;;;;;;15.30;11.20;;;18.70;99.90;;;;;;5011248;28;20103;-62
2022/06/26 06:34:33;;;;;;;14.85;10.38;;;18.70;99.90;;;;;;5013229;28;20038;-62
2022/06/26 06:36:59;;;;;;;12.43;10.40;;;18.70;99.90;;;;;;5021508;28;20092;-62
2022/06/26 06:39:24;;;;;;;14.15;11.43;;;18.80;99.90;;;;;;5018139;28;20042;-61
2022/06/26 06:41:50;;;;;;;13.75;11.20;;;18.80;99.90;;;;;;5016771;28;20550;-62
2022/06/26 06:44:16;;;;;;;14.55;11.77;;;18.80;99.90;;;;;;5000002;28;20032;-62
2022/06/26 06:46:42;;;;;;;13.55;11.73;;;18.90;99.90;;;;;;5015045;28;20516;-62
2022/06/26 06:49:08;;;;;;;14.05;12.27;;;19.00;99.90;;;;;;5023122;28;20384;-62
2022/06/26 06:51:34;;;;;;;14.00;12.43;;;19.10;99.90;;;;;;5010778;28;20092;-62
2022/06/26 06:53:59;;;;;;;14.95;12.73;;;19.20;99.90;;;;;;5011081;28;20041;-62
2022/06/26 06:56:25;;;;;;;19.58;13.20;;;19.20;99.90;;;;;;5014213;28;20060;-62
2022/06/26 06:58:51;;;;;;;15.07;12.70;;;19.20;99.90;;;;;;5009746;28;20046;-62
2022/06/26 07:01:17;;;;;;;15.73;13.45;;;19.20;99.90;;;;;;5015242;28;20076;-62
2022/06/26 07:03:43;;;;;;;16.63;13.18;;;19.20;99.90;;;;;;5017896;28;20037;-62
2022/06/26 07:06:08;;;;;;;15.60;12.93;;;19.20;99.90;;;;;;4994966;28;20581;-62
2022/06/26 07:08:34;;;;;;;16.20;13.43;;;19.20;99.90;;;;;;5005716;28;20059;-62
2022/06/26 07:11:00;;;;;;;18.90;13.65;;;19.30;99.90;;;;;;5011006;28;20087;-61
2022/06/26 07:13:26;;;;;;;16.13;14.43;;;19.30;99.90;;;;;;4997203;28;20083;-62
2022/06/26 07:15:52;;;;;;;19.20;14.85;;;19.40;99.90;;;;;;5005828;28;20483;-62
2022/06/26 07:18:18;;;;;;;18.50;14.82;;;19.50;99.90;;;;;;5014872;28;20104;-62
2022/06/26 07:20:43;;;;;;;19.50;15.43;;;19.60;99.90;;;;;;5013075;28;20049;-62
2022/06/26 07:23:10;;;;;;;17.17;15.38;;;19.70;99.90;;;;;;5019434;28;20526;-62
2022/06/26 07:25:36;;;;;;;18.77;15.15;;;19.70;99.90;;;;;;5030625;28;20115;-62
2022/06/26 07:28:01;;;;;;;19.45;17.00;;;19.70;99.90;;;;;;5013427;28;20049;-62
2022/06/26 07:30:27;;;;;;;20.92;17.52;;;19.70;99.90;;;;;;5017082;28;20064;-62
2022/06/26 07:32:53;;;;;;;25.25;20.38;;;19.80;99.90;;;;;;4979417;28;20051;-62
2022/06/26 07:35:19;;;;;;;25.67;20.13;;;19.70;99.90;;;;;;5011433;28;20053;-62
2022/06/26 07:37:46;;;;;;;23.60;18.88;;;19.70;99.90;;;;;;5016818;28;20353;-62
2022/06/26 07:40:12;;;;;;;23.90;19.45;;;19.70;99.90;;;;;;5009667;28;20042;-61
2022/06/26 07:42:38;;;;;;;22.80;19.63;;;19.70;99.90;;;;;;4987853;28;20496;-61
2022/06/26 07:45:04;;;;;;;25.25;20.35;;;19.70;99.90;;;;;;5013751;28;20049;-62
2022/06/26 07:47:30;;;;;;;28.65;19.38;;;19.70;99.90;;;;;;5009339;28;20049;-62
2022/06/26 07:49:56;;;;;;;25.10;20.98;;;19.70;99.90;;;;;;5006057;28;20053;-62
2022/06/26 07:52:22;;;;;;;26.48;21.25;;;19.90;99.90;;;;;;5002837;28;20072;-62
2022/06/26 07:54:47;;;;;;;22.83;20.02;;;20.00;99.90;;;;;;4998327;28;20045;-62
2022/06/26 07:57:13;;;;;;;25.70;20.30;;;20.20;99.90;;;;;;5009566;28;20034;-62
2022/06/26 07:59:39;;;;;;;30.25;20.48;;;20.30;99.90;;;;;;5014569;28;20064;-61
2022/06/26 08:02:05;;;;;;;24.10;19.98;;;20.50;99.90;;;;;;5019311;28;20096;-62
2022/06/26 08:04:34;;;;;;;26.48;17.77;;;20.60;99.90;;;;;;4977214;28;20041;-62
2022/06/26 08:07:00;;;;;;;21.25;16.95;;;20.80;99.90;;;;;;5015602;28;20130;-61
2022/06/26 08:09:25;;;;;;;18.70;15.18;;;20.90;99.90;;;;;;5006615;28;20762;-62
2022/06/26 08:11:51;;;;;;;17.00;13.40;;;21.00;99.90;;;;;;4990489;28;20510;-62
2022/06/26 08:14:17;;;;;;;18.42;14.60;;;21.20;99.90;;;;;;5000330;28;20107;-62
2022/06/26 08:16:43;;;;;;;16.30;13.18;;;21.40;99.90;;;;;;5019357;28;20427;-61
2022/06/26 08:19:09;;;;;;;12.82;10.93;;;21.50;99.90;;;;;;5019673;28;20835;-61
2022/06/26 08:24:19;;;;;;;13.50;10.95;;;21.60;99.90;;;;;;5007021;28;20053;-62
2022/06/26 08:26:45;;;;;;;12.10;10.40;;;21.70;99.90;;;;;;5003473;28;20530;-62
2022/06/26 08:29:11;;;;;;;13.93;11.05;;;21.70;99.90;;;;;;5006873;28;20069;-62
2022/06/26 08:31:37;;;;;;;11.85;9.73;;;21.70;99.90;;;;;;5005918;28;20041;-62
2022/06/26 08:34:03;;;;;;;13.43;10.05;;;21.50;99.90;;;;;;5006986;28;20042;-62
2022/06/26 08:36:28;;;;;;;15.18;9.90;;;21.50;99.90;;;;;;5000295;28;20046;-62
2022/06/26 08:38:54;;;;;;;9.32;8.32;;;21.50;99.90;;;;;;5001725;28;20838;-62
2022/06/26 08:41:25;;;;;;;9.50;8.25;;;21.50;99.90;;;;;;4994941;28;20164;-62
2022/06/26 08:43:51;;;;;;;10.00;7.45;;;21.60;99.90;;;;;;5000749;28;20049;-62
2022/06/26 08:46:21;;;;;;;11.80;7.15;;;21.70;99.90;;;;;;4993189;28;20503;-62
2022/06/26 08:48:49;;;;;;;9.85;6.80;;;21.90;99.90;;;;;;5002879;28;20042;-62
2022/06/26 08:51:15;;;;;;;8.02;6.30;;;22.00;99.90;;;;;;4999529;28;20054;-62
2022/06/26 08:53:41;;;;;;;8.35;6.55;;;22.20;99.90;;;;;;5003133;28;20156;-62
2022/06/26 08:56:08;;;;;;;7.57;6.60;;;22.10;99.90;;;;;;5005012;28;20714;-62
2022/06/26 08:58:34;;;;;;;7.68;5.70;;;21.90;99.90;;;;;;5006022;28;20111;-61
2022/06/26 09:01:00;;;;;;;9.23;5.40;;;21.70;99.90;;;;;;5004215;28;20183;-62
2022/06/26 09:03:26;;;;;;;7.60;5.70;;;21.50;99.90;;;;;;4990613;28;20056;-62
2022/06/26 09:05:51;;;;;;;7.95;5.80;;;21.40;99.90;;;;;;4989550;28;20060;-62
2022/06/26 09:08:19;;;;;;;7.28;5.82;;;21.40;99.90;;;;;;4980872;28;20518;-62
2022/06/26 09:10:49;;;;;;;7.80;5.05;;;21.50;99.90;;;;;;4996070;28;21255;-61
2022/06/26 09:13:15;;;;;;;5.07;4.40;;;21.60;99.90;;;;;;4982291;28;20558;-62
2022/06/26 09:15:42;;;;;;;7.35;5.28;;;21.60;99.90;;;;;;5006399;28;20056;-62
2022/06/26 09:18:11;;;;;;;11.10;5.40;;;21.80;99.90;;;;;;4989660;28;20045;-62
2022/06/26 09:20:49;;;;;;;9.90;5.60;;;21.90;99.90;;;;;;5004041;28;20049;-62
2022/06/26 09:23:15;;;;;;;8.82;4.63;;;22.20;99.90;;;;;;5008154;28;20552;-62
2022/06/26 09:25:44;;;;;;;5.15;3.83;;;22.50;99.90;;;;;;5006450;28;20048;-62
2022/06/26 09:28:21;;;;;;;6.25;3.45;;;22.60;99.90;;;;;;5000451;28;20056;-62
2022/06/26 09:31:04;;;;;;;6.40;3.58;;;22.60;99.90;;;;;;5004919;28;20046;-61
2022/06/26 09:33:33;;;;;;;5.22;4.07;;;22.60;99.90;;;;;;5005494;28;20388;-61
2022/06/26 09:36:00;;;;;;;7.97;3.92;;;22.50;99.90;;;;;;5005314;28;20507;-61
2022/06/26 09:38:31;;;;;;;4.60;2.83;;;22.50;99.90;;;;;;4990052;28;20083;-62
2022/06/26 09:41:04;;;;;;;5.30;3.20;;;22.70;99.90;;;;;;5013242;28;20088;-62
2022/06/26 09:43:35;;;;;;;6.05;3.05;;;22.90;99.60;;;;;;5014842;28;20102;-61
2022/06/26 09:46:06;;;;;;;4.68;2.63;;;23.10;99.60;;;;;;5008221;28;20111;-62
2022/06/26 09:48:33;;;;;;;4.50;2.90;;;23.20;98.50;;;;;;5015331;28;20430;-62
2022/06/26 09:51:00;;;;;;;4.97;3.08;;;23.30;97.90;;;;;;5001605;28;20064;-62
2022/06/26 09:53:27;;;;;;;6.18;3.20;;;23.40;97.70;;;;;;4998680;28;20101;-62
2022/06/26 09:55:56;;;;;;;3.20;2.80;;;23.50;97.40;;;;;;5007127;28;20050;-61
2022/06/26 09:58:23;;;;;;;3.28;2.60;;;23.60;96.90;;;;;;5001096;28;20046;-62
2022/06/26 10:06:27;;;;;;;4.15;2.60;;;23.90;95.80;;;;;;5004983;28;20429;-62
2022/06/26 10:08:59;;;;;;;2.92;2.42;;;23.90;94.90;;;;;;5004675;28;20083;-62
2022/06/26 10:11:27;;;;;;;5.45;3.13;;;23.90;95.20;;;;;;4997973;28;20049;-62
2022/06/26 10:13:59;;;;;;;4.47;2.80;;;24.00;95.70;;;;;;4996114;28;20064;-62
2022/06/26 10:16:31;;;;;;;3.00;2.65;;;24.00;95.20;;;;;;5003092;28;20088;-62
2022/06/26 10:19:18;;;;;;;2.72;1.98;;;23.90;94.80;;;;;;4998919;28;20503;-62
2022/06/26 10:21:46;;;;;;;2.25;1.70;;;24.00;95.70;;;;;;5000303;28;20058;-63
2022/06/26 10:24:12;;;;;;;3.95;2.50;;;24.10;94.10;;;;;;5001040;28;20049;-62
2022/06/26 10:26:38;;;;;;;2.60;1.83;;;24.20;93.60;;;;;;5002108;28;20511;-62
2022/06/26 10:29:06;;;;;;;4.07;2.33;;;24.40;92.80;;;;;;4994874;28;20061;-62
2022/06/26 10:31:46;;;;;;;11.20;2.30;;;24.60;92.70;;;;;;5005984;28;20488;-62
2022/06/26 10:34:20;;;;;;;3.85;2.40;;;24.70;92.70;;;;;;5000159;28;20072;-62
2022/06/26 10:36:57;;;;;;;4.35;2.10;;;24.60;91.60;;;;;;5005942;28;20049;-65
2022/06/26 10:39:23;;;;;;;4.13;2.25;;;24.40;91.70;;;;;;4995561;28;20053;-64
2022/06/26 10:44:44;;;;;;;7.78;2.65;;;24.30;91.20;;;;;;5003108;28;21010;-65
2022/06/26 10:47:15;;;;;;;4.07;2.13;;;24.30;92.00;;;;;;5001337;28;20053;-65
2022/06/26 10:49:51;;;;;;;3.92;2.15;;;24.30;91.60;;;;;;5001841;28;20144;-65
2022/06/26 10:52:25;;;;;;;5.13;2.40;;;24.30;91.00;;;;;;4992938;28;20057;-64
2022/06/26 10:54:52;;;;;;;4.93;2.00;;;24.40;90.50;;;;;;5002935;28;20077;-63
2022/06/26 10:57:35;;;;;;;4.97;1.90;;;24.30;89.60;;;;;;4983383;28;20429;-65
2022/06/26 11:00:08;;;;;;;2.88;1.77;;;24.30;88.80;;;;;;4998983;28;20545;-65
2022/06/26 11:02:36;;;;;;;2.58;1.88;;;24.40;89.10;;;;;;5016661;28;20678;-64
2022/06/26 11:05:04;;;;;;;3.33;2.03;;;24.50;88.90;;;;;;4976039;28;20050;-64
2022/06/26 11:07:43;;;;;;;6.85;2.90;;;24.60;89.10;;;;;;4989467;28;20146;-64
2022/06/26 11:10:21;;;;;;;4.75;2.20;;;24.70;88.20;;;;;;4977815;28;20041;-64
2022/06/26 11:12:49;;;;;;;3.97;1.88;;;24.80;86.60;;;;;;4980389;28;20139;-65
2022/06/26 11:15:32;;;;;;;3.90;2.30;;;24.80;86.60;;;;;;4976515;28;20041;-64
2022/06/26 11:18:03;;;;;;;3.28;2.00;;;24.80;85.20;;;;;;4999884;28;20171;-65
2022/06/26 11:21:01;;;;;;;4.32;2.65;;;24.80;85.70;;;;;;5006042;28;20338;-63
2022/06/26 11:23:29;;;;;;;4.25;2.22;;;25.00;85.80;;;;;;4993667;28;20131;-64
2022/06/26 11:26:07;;;;;;;4.57;2.38;;;25.20;84.80;;;;;;5002935;28;20041;-65
2022/06/26 11:28:40;;;;;;;2.60;2.00;;;25.20;84.80;;;;;;5006577;28;20116;-64
2022/06/26 11:31:08;;;;;;;4.40;2.60;;;25.20;84.60;;;;;;4998101;28;20050;-63
2022/06/26 11:33:37;;;;;;;5.57;2.35;;;25.20;82.90;;;;;;5007491;28;20396;-65
2022/06/26 11:36:06;;;;;;;4.43;2.03;;;25.30;82.70;;;;;;5007370;28;20376;-63
2022/06/26 11:38:34;;;;;;;5.85;1.88;;;25.40;82.20;;;;;;5004800;28;20480;-65
2022/06/26 11:41:08;;;;;;;6.45;1.80;;;25.40;81.20;;;;;;5009608;28;20439;-65
2022/06/26 11:43:34;;;;;;;2.75;1.98;;;25.30;80.60;;;;;;4981254;28;20049;-65
2022/06/26 11:46:04;;;;;;;3.50;1.80;;;25.20;79.50;;;;;;4970754;28;20050;-64
2022/06/26 11:48:31;;;;;;;3.42;1.77;;;25.20;78.80;;;;;;5004295;28;20041;-63
2022/06/26 11:50:58;;;;;;;4.20;2.05;;;25.20;77.40;;;;;;5012800;28;20048;-65
2022/06/26 11:53:30;;;;;;;3.78;1.73;;;25.40;78.00;;;;;;5001347;28;20055;-64
2022/06/26 11:56:02;;;;;;;3.85;2.03;;;25.60;77.90;;;;;;4994049;28;20049;-63
2022/06/26 11:58:31;;;;;;;4.30;1.70;;;25.80;76.70;;;;;;5012007;28;20047;-64
2022/06/26 12:01:08;;;;;;;5.93;1.98;;;25.80;76.30;;;;;;5014466;28;20049;-65
2022/06/26 12:03:54;;;;;;;3.78;1.65;;;25.80;75.50;;;;;;5002207;28;20049;-63
2022/06/26 12:06:37;;;;;;;3.88;1.92;;;25.70;75.40;;;;;;4991356;28;20122;-63
2022/06/26 12:09:24;;;;;;;;;;;25.60;77.20;;;;;;5004089;28;22085;-67
2022/06/26 12:11:55;;;;;;;3.10;2.00;;;25.50;78.40;;;;;;5009577;28;20039;-67
2022/06/26 12:14:26;;;;;;;2.88;1.77;;;25.40;77.50;;;;;;4996825;28;20041;-67
2022/06/26 12:16:56;;;;;;;3.28;2.05;;;25.40;77.00;;;;;;4993054;28;20041;-67
2022/06/26 12:19:23;;;;;;;4.10;2.22;;;25.30;76.50;;;;;;4997442;28;20049;-66
2022/06/26 12:21:52;;;;;;;4.18;1.92;;;25.30;76.40;;;;;;4985523;28;20095;-67
2022/06/26 12:24:19;;;;;;;3.15;2.17;;;25.20;77.20;;;;;;5004550;28;20045;-68
2022/06/26 12:26:45;;;;;;;4.40;2.25;;;25.30;79.10;;;;;;4998014;28;20058;-67
2022/06/26 12:29:14;;;;;;;6.03;2.22;;;25.40;78.80;;;;;;4983013;28;20066;-67
2022/06/26 12:31:40;;;;;;;4.43;2.10;;;25.50;79.00;;;;;;4984152;28;20077;-66
2022/06/26 12:34:07;;;;;;;2.58;1.80;;;25.60;77.10;;;;;;4985336;28;21092;-67
2022/06/26 12:36:34;;;;;;;4.65;1.88;;;25.50;75.50;;;;;;5008074;28;20128;-67
2022/06/26 12:39:01;;;;;;;7.78;2.20;;;25.60;75.40;;;;;;4974132;28;20046;-67
2022/06/26 12:41:27;;;;;;;5.50;1.83;;;25.60;75.60;;;;;;5013431;28;20058;-67
2022/06/26 12:43:55;;;;;;;3.80;1.95;;;25.60;75.00;;;;;;4986066;28;20558;-67
2022/06/26 12:46:22;;;;;;;3.63;2.17;;;25.60;74.00;;;;;;4987211;28;20053;-67
2022/06/26 12:48:48;;;;;;;3.80;2.10;;;25.30;73.60;;;;;;4985583;28;20052;-67
2022/06/26 12:51:15;;;;;;;4.88;2.20;;;25.20;74.60;;;;;;4981960;28;20174;-67
2022/06/26 12:53:41;;;;;;;3.70;1.85;;;25.00;75.80;;;;;;5004606;28;20053;-67
2022/06/26 12:56:09;;;;;;;4.72;2.20;;;24.90;76.10;;;;;;5002469;28;20741;-67